Time;durP1;ratioP1;P1;durP2;ratioP2;P2;SDS_P1;SDS_P2;PMS_P1;PMS_P2;Temp;Humidity;BMP_temperature;BMP_pressure;BME280_temperature;BME280_humidity;BME280_pressure;Samples;Min_cycle;Max_cycle;Signal;HPM_P1;HPM_P2
2021/06/10 00:00:52;;;;;;;5.20;3.17;;;;;;;15.73;67.12;93800.75;5091721;28;20123;-70
2021/06/10 00:03:18;;;;;;;8.25;4.38;;;;;;;15.65;67.81;93797.13;5098728;28;20049;-70
2021/06/10 00:05:44;;;;;;;6.22;3.80;;;;;;;15.56;68.14;93807.22;5088807;28;20422;-71
2021/06/10 00:08:10;;;;;;;5.53;3.88;;;;;;;15.59;68.38;93805.75;5106955;28;20028;-70
2021/06/10 00:10:39;;;;;;;8.50;3.80;;;;;;;15.60;68.46;93793.91;5111644;28;20092;-70
2021/06/10 00:13:05;;;;;;;5.72;3.83;;;;;;;15.63;68.57;93791.31;5111904;28;20031;-70
2021/06/10 00:15:33;;;;;;;6.53;3.90;;;;;;;15.62;68.59;93791.66;5105981;28;20019;-70
2021/06/10 00:17:59;;;;;;;7.97;3.78;;;;;;;15.67;68.53;93790.59;5110264;28;20070;-71
2021/06/10 00:20:26;;;;;;;7.15;3.90;;;;;;;15.64;68.31;93786.72;5102793;28;20043;-71
2021/06/10 00:22:54;;;;;;;5.57;3.30;;;;;;;15.64;68.50;93786.72;5091061;28;20030;-71
2021/06/10 00:25:20;;;;;;;5.38;3.58;;;;;;;15.57;68.57;93781.16;5090131;28;20567;-71
2021/06/10 00:27:46;;;;;;;9.68;3.50;;;;;;;15.57;68.55;93771.19;5099454;28;20020;-71
2021/06/10 00:30:17;;;;;;;7.97;3.97;;;;;;;15.58;68.45;93762.00;5105314;28;20024;-72
2021/06/10 00:32:50;;;;;;;7.30;3.65;;;;;;;15.53;68.41;93759.59;5089683;28;20468;-71
2021/06/10 00:35:17;;;;;;;4.95;3.58;;;;;;;15.55;68.30;93753.84;5088935;28;20483;-71
2021/06/10 00:37:43;;;;;;;5.25;3.58;;;;;;;15.57;68.43;93740.84;5109510;28;20031;-72
2021/06/10 00:40:09;;;;;;;5.82;3.75;;;;;;;15.58;68.29;93745.13;5108776;28;20027;-71
2021/06/10 00:42:35;;;;;;;6.43;3.13;;;;;;;15.59;68.28;93747.47;5090496;28;20023;-71
2021/06/10 00:45:01;;;;;;;5.30;3.65;;;;;;;15.60;68.12;93740.16;5090643;28;20020;-71
2021/06/10 00:47:27;;;;;;;8.73;4.30;;;;;;;15.59;68.38;93752.84;5090674;28;20026;-70
2021/06/10 00:49:52;;;;;;;5.63;3.90;;;;;;;15.58;67.96;93745.13;5090497;28;20476;-70
2021/06/10 00:52:18;;;;;;;4.57;3.10;;;;;;;15.52;67.84;93739.22;5090701;28;20024;-71
2021/06/10 00:54:44;;;;;;;6.10;3.60;;;;;;;15.43;68.57;93739.38;5090485;28;20030;-70
2021/06/10 00:57:09;;;;;;;8.48;3.90;;;;;;;15.39;68.72;93743.13;5090751;28;20119;-72
2021/06/10 00:59:35;;;;;;;7.78;3.30;;;;;;;15.36;68.85;93739.19;5090558;28;20376;-72
2021/06/10 01:02:00;;;;;;;7.38;3.30;;;;;;;15.38;68.70;93736.94;5090340;28;20027;-72
2021/06/10 01:04:27;;;;;;;4.75;3.30;;;;;;;15.39;68.63;93735.84;5091274;28;20081;-71
2021/06/10 01:07:15;;;;;;;6.80;3.03;;;;;;;15.35;67.46;93737.66;5110448;28;20110;-72
2021/06/10 01:09:51;;;;;;;5.85;3.42;;;;;;;15.32;67.51;93738.34;5110365;28;20032;-71
2021/06/10 01:12:46;;;;;;;10.73;2.92;;;;;;;15.34;67.69;93730.72;5109265;28;20102;-71
2021/06/10 01:15:13;;;;;;;8.43;4.47;;;;;;;15.36;67.47;93743.81;5110580;28;20031;-71
2021/06/10 01:17:42;;;;;;;5.10;3.60;;;;;;;15.40;67.41;93739.28;5094510;28;20047;-71
2021/06/10 01:20:13;;;;;;;5.25;2.97;;;;;;;15.40;67.41;93748.13;5110639;28;20024;-71
2021/06/10 01:22:57;;;;;;;12.63;3.25;;;;;;;15.39;67.29;93743.13;5126343;27;20027;-71
2021/06/10 01:25:32;;;;;;;5.32;3.22;;;;;;;15.39;67.26;93743.91;5110415;28;20398;-72
2021/06/10 01:28:07;;;;;;;6.30;3.30;;;;;;;15.37;67.37;93746.16;5110373;28;20028;-72
2021/06/10 01:30:36;;;;;;;8.02;3.63;;;;;;;15.38;67.14;93745.00;5109059;28;20070;-72
2021/06/10 01:33:10;;;;;;;8.88;3.33;;;;;;;15.42;66.85;93739.72;5095953;28;20464;-72
2021/06/10 01:35:40;;;;;;;9.57;3.42;;;;;;;15.43;66.84;93746.69;5090045;28;20049;-72
2021/06/10 01:38:08;;;;;;;4.75;3.25;;;;;;;15.41;66.96;93752.38;5089897;28;20027;-71
2021/06/10 01:40:34;;;;;;;4.65;3.40;;;;;;;15.36;67.00;93755.31;5090164;28;20372;-72
2021/06/10 01:43:01;;;;;;;10.35;4.00;;;;;;;15.33;67.41;93760.63;5090752;28;20111;-72
2021/06/10 01:45:27;;;;;;;8.38;3.53;;;;;;;15.24;67.64;93763.44;5110335;28;20411;-72
2021/06/10 01:47:54;;;;;;;4.68;3.33;;;;;;;15.15;67.37;93768.22;5113018;28;20435;-72
2021/06/10 01:50:21;;;;;;;8.43;3.50;;;;;;;15.04;67.95;93781.31;5114283;27;20518;-71
2021/06/10 01:52:48;;;;;;;5.90;3.42;;;;;;;14.90;68.48;93771.00;5113139;28;20031;-72
2021/06/10 01:55:16;;;;;;;8.60;4.57;;;;;;;14.83;69.41;93771.56;5101087;28;20584;-72
2021/06/10 01:57:43;;;;;;;11.15;5.85;;;;;;;14.77;70.62;93772.16;5099128;28;20023;-72
2021/06/10 02:00:11;;;;;;;9.43;6.38;;;;;;;14.67;71.14;93768.06;5094938;28;20115;-72
2021/06/10 02:02:38;;;;;;;20.67;5.78;;;;;;;14.63;71.38;93762.63;5093812;28;20470;-72
2021/06/10 02:05:06;;;;;;;9.57;5.57;;;;;;;14.58;72.02;93757.47;5096736;28;20799;-72
2021/06/10 02:07:35;;;;;;;8.05;5.43;;;;;;;14.48;72.19;93755.25;5110219;28;20026;-72
2021/06/10 02:10:00;;;;;;;7.35;4.80;;;;;;;14.44;72.26;93743.63;5092254;28;20063;-72
2021/06/10 02:12:26;;;;;;;9.60;4.93;;;;;;;14.45;72.40;93739.84;5093596;28;20024;-72
2021/06/10 02:14:52;;;;;;;9.23;5.10;;;;;;;14.47;72.24;93740.28;5104332;28;20539;-73
2021/06/10 02:17:17;;;;;;;12.32;4.80;;;;;;;14.50;72.22;93746.88;5113746;28;20065;-72
2021/06/10 02:19:43;;;;;;;8.02;5.05;;;;;;;14.50;72.42;93753.00;5114007;27;20533;-71
2021/06/10 02:22:08;;;;;;;8.68;5.57;;;;;;;14.51;72.14;93746.53;5113827;28;20031;-71
2021/06/10 02:24:34;;;;;;;9.45;5.15;;;;;;;14.52;72.06;93748.06;5113655;28;20019;-71
2021/06/10 02:26:59;;;;;;;7.40;4.85;;;;;;;14.55;71.91;93760.03;5113619;28;20036;-71
2021/06/10 02:29:25;;;;;;;10.45;5.40;;;;;;;14.44;71.69;93763.19;5113288;28;20041;-71
2021/06/10 02:31:50;;;;;;;7.03;4.43;;;;;;;14.38;71.59;93771.81;5113480;28;20023;-71
2021/06/10 02:34:16;;;;;;;16.00;5.82;;;;;;;14.35;71.59;93777.81;5112206;28;20020;-71
2021/06/10 02:36:44;;;;;;;14.52;5.03;;;;;;;14.30;71.86;93781.53;5112314;28;20019;-71
2021/06/10 02:39:12;;;;;;;7.22;4.57;;;;;;;14.26;71.89;93777.97;5113549;28;20024;-71
2021/06/10 02:41:43;;;;;;;6.28;4.68;;;;;;;14.29;71.82;93769.25;5113499;27;20038;-71
2021/06/10 02:44:09;;;;;;;10.40;4.93;;;;;;;14.32;71.58;93773.16;5111741;28;20027;-71
2021/06/10 02:46:35;;;;;;;11.00;5.32;;;;;;;14.28;71.69;93761.56;5112998;28;20016;-71
2021/06/10 02:49:03;;;;;;;7.82;4.72;;;;;;;14.31;71.73;93771.59;5094503;28;20028;-70
2021/06/10 02:51:31;;;;;;;7.78;5.00;;;;;;;14.35;71.46;93775.16;5092920;28;20467;-71
2021/06/10 02:53:58;;;;;;;10.80;4.65;;;;;;;14.35;71.59;93764.41;5096771;28;20406;-70
2021/06/10 02:56:26;;;;;;;7.00;5.00;;;;;;;14.35;71.62;93770.59;5112828;28;20042;-70
2021/06/10 02:58:54;;;;;;;9.48;4.53;;;;;;;14.34;71.56;93770.91;5111294;28;20075;-70
2021/06/10 03:01:20;;;;;;;6.65;4.57;;;;;;;14.36;71.36;93774.03;5111673;28;20019;-71
2021/06/10 03:03:46;;;;;;;9.38;4.43;;;;;;;14.34;71.55;93770.91;5113180;28;20433;-70
2021/06/10 03:06:12;;;;;;;5.22;4.28;;;;;;;14.38;71.39;93766.44;5111677;28;20096;-70
2021/06/10 03:08:38;;;;;;;7.05;4.47;;;;;;;14.42;71.23;93780.72;5111436;28;20115;-71
2021/06/10 03:11:07;;;;;;;6.90;4.53;;;;;;;14.44;71.20;93778.50;5111531;28;20521;-71
2021/06/10 03:13:34;;;;;;;11.30;4.70;;;;;;;14.41;71.29;93779.97;5111256;28;20015;-71
2021/06/10 03:16:01;;;;;;;6.30;4.35;;;;;;;14.39;71.51;93773.34;5112467;27;20029;-71
2021/06/10 03:18:28;;;;;;;7.57;4.38;;;;;;;14.40;71.40;93772.25;5112673;28;20024;-71
2021/06/10 03:20:57;;;;;;;14.27;6.18;;;;;;;14.44;71.11;93773.91;5112612;28;20110;-71
2021/06/10 03:23:23;;;;;;;5.45;4.30;;;;;;;14.45;71.17;93767.44;5111158;28;20019;-71
2021/06/10 03:25:49;;;;;;;6.68;5.07;;;;;;;14.46;71.36;93768.22;5112472;28;20019;-71
2021/06/10 03:28:15;;;;;;;6.60;4.32;;;;;;;14.49;71.22;93767.53;5105139;28;20020;-71
2021/06/10 03:30:40;;;;;;;6.15;4.95;;;;;;;14.50;71.29;93768.31;5098845;28;20034;-71
2021/06/10 03:33:06;;;;;;;9.93;5.82;;;;;;;14.57;71.32;93771.22;5103611;28;20024;-71
2021/06/10 03:35:37;;;;;;;6.38;4.45;;;;;;;14.64;71.02;93768.75;5090670;28;20024;-71
2021/06/10 03:38:04;;;;;;;6.65;4.93;;;;;;;14.68;70.94;93761.59;5091969;28;20020;-71
2021/06/10 03:40:31;;;;;;;8.95;4.88;;;;;;;14.71;70.80;93760.13;5091514;28;20145;-71
2021/06/10 03:42:57;;;;;;;5.20;4.38;;;;;;;14.76;70.67;93770.63;5091154;28;20031;-71
2021/06/10 03:45:23;;;;;;;7.07;4.97;;;;;;;14.82;70.50;93763.88;5091628;28;20414;-71
2021/06/10 03:47:48;;;;;;;8.80;4.40;;;;;;;14.85;70.72;93771.25;5091820;28;20020;-71
2021/06/10 03:50:16;;;;;;;8.25;4.78;;;;;;;14.86;70.58;93772.81;5097734;28;20506;-71
2021/06/10 03:52:43;;;;;;;5.97;4.28;;;;;;;14.92;70.67;93770.66;5111691;28;20038;-72
2021/06/10 03:55:09;;;;;;;8.93;5.03;;;;;;;14.94;70.69;93771.88;5111563;28;20015;-71
2021/06/10 03:57:36;;;;;;;12.52;5.07;;;;;;;14.99;70.67;93768.94;5111465;28;20030;-71
2021/06/10 04:00:06;;;;;;;6.68;4.35;;;;;;;15.03;70.56;93769.03;5111497;28;20031;-70
2021/06/10 04:02:32;;;;;;;9.65;4.32;;;;;;;15.10;70.76;93768.44;5110511;28;20072;-70
2021/06/10 04:04:57;;;;;;;9.43;4.03;;;;;;;15.16;70.75;93767.06;5111386;28;20023;-71
2021/06/10 04:07:22;;;;;;;10.13;4.38;;;;;;;15.23;70.64;93767.25;5111625;28;20372;-71
2021/06/10 04:09:48;;;;;;;7.53;4.80;;;;;;;15.27;70.64;93770.81;5110346;28;20103;-71
2021/06/10 04:12:13;;;;;;;8.73;4.40;;;;;;;15.30;69.38;93762.06;5098037;27;20040;-70
2021/06/10 04:14:39;;;;;;;11.07;4.95;;;;;;;15.36;69.33;93766.06;5089778;28;20028;-71
2021/06/10 04:17:04;;;;;;;22.83;6.10;;;;;;;15.45;69.13;93771.28;5107152;28;20026;-71
2021/06/10 04:19:30;;;;;;;15.63;5.95;;;;;;;15.47;69.06;93763.66;5110017;28;20521;-71
2021/06/10 04:21:55;;;;;;;11.18;5.82;;;;;;;15.43;69.29;93774.31;5111154;28;20096;-71
2021/06/10 04:24:21;;;;;;;26.98;7.03;;;;;;;15.49;69.10;93757.91;5111174;28;20401;-71
2021/06/10 04:26:47;;;;;;;19.80;5.95;;;;;;;15.62;68.53;93770.16;5111179;28;20066;-71
2021/06/10 04:29:12;;;;;;;13.02;6.50;;;;;;;15.62;68.63;93752.13;5098784;28;20458;-71
2021/06/10 04:31:37;;;;;;;9.95;5.63;;;;;;;15.63;68.88;93760.94;5090931;28;20024;-71
2021/06/10 04:34:03;;;;;;;25.35;5.85;;;;;;;15.67;69.03;93761.03;5090870;28;20372;-71
2021/06/10 04:36:28;;;;;;;9.35;5.30;;;;;;;15.73;68.19;93767.75;5088514;28;20028;-71
2021/06/10 04:38:54;;;;;;;12.10;5.82;;;;;;;15.75;67.81;93760.91;5089918;28;20411;-71
2021/06/10 04:41:19;;;;;;;28.33;6.20;;;;;;;15.81;68.21;93754.16;5104651;28;20062;-72
2021/06/10 04:43:45;;;;;;;13.93;5.40;;;;;;;15.83;68.35;93751.91;5109928;28;20027;-71
2021/06/10 04:46:11;;;;;;;10.02;5.70;;;;;;;15.90;68.19;93751.28;5110734;28;20015;-70
2021/06/10 04:48:37;;;;;;;11.30;5.57;;;;;;;15.97;67.90;93751.44;5110737;28;20034;-71
2021/06/10 04:51:04;;;;;;;13.32;6.60;;;;;;;15.98;68.55;93757.59;5102688;28;20490;-71
2021/06/10 04:53:29;;;;;;;12.52;5.68;;;;;;;16.07;67.76;93752.03;5092223;28;20028;-71
2021/06/10 04:55:55;;;;;;;11.80;6.38;;;;;;;16.05;68.26;93763.13;5110411;28;20018;-71
2021/06/10 04:58:21;;;;;;;9.70;6.22;;;;;;;16.08;68.00;93753.56;5109128;28;20020;-71
2021/06/10 05:00:46;;;;;;;9.38;5.10;;;;;;;16.13;66.20;93756.78;5109173;28;20019;-71
2021/06/10 05:03:11;;;;;;;12.43;5.10;;;;;;;16.21;65.84;93761.19;5108805;28;20213;-71
2021/06/10 05:05:39;;;;;;;15.60;6.05;;;;;;;16.22;66.34;93762.75;5109057;28;20162;-71
2021/06/10 05:08:05;;;;;;;21.15;6.88;;;;;;;16.31;66.33;93759.09;5108818;28;20023;-71
2021/06/10 05:10:30;;;;;;;12.00;6.68;;;;;;;16.35;66.34;93765.31;5110142;28;20035;-70
2021/06/10 05:12:55;;;;;;;14.40;6.57;;;;;;;16.39;66.34;93758.13;5108829;28;20039;-71
2021/06/10 05:15:21;;;;;;;12.48;7.03;;;;;;;16.39;65.57;93763.50;5110356;28;20098;-70
2021/06/10 05:17:46;;;;;;;7.22;5.63;;;;;;;16.46;65.79;93769.00;5108180;28;20023;-71
2021/06/10 05:20:12;;;;;;;26.95;7.28;;;;;;;16.53;65.93;93755.72;5109658;28;20027;-71
2021/06/10 05:22:38;;;;;;;24.08;6.75;;;;;;;16.68;66.09;93761.41;5108729;28;20443;-72
2021/06/10 05:25:04;;;;;;;10.20;6.43;;;;;;;16.83;65.53;93766.75;5094928;28;20161;-73
2021/06/10 05:27:30;;;;;;;18.23;6.88;;;;;;;16.97;64.57;93760.84;5093677;28;20032;-74
2021/06/10 05:29:55;;;;;;;10.65;6.35;;;;;;;17.03;63.72;93759.41;5125657;27;20455;-74
2021/06/10 05:32:21;;;;;;;10.55;5.55;;;;;;;17.17;63.62;93768.91;5096513;28;20042;-75
2021/06/10 05:34:46;;;;;;;18.02;5.97;;;;;;;17.27;62.29;93771.00;5092706;28;20022;-74
2021/06/10 05:37:12;;;;;;;16.85;5.25;;;;;;;17.33;61.45;93768.81;5109762;28;20122;-74
2021/06/10 05:39:38;;;;;;;10.05;5.53;;;;;;;17.28;61.73;93767.19;5108371;28;20031;-74
2021/06/10 05:42:04;;;;;;;7.60;5.22;;;;;;;17.33;61.65;93768.81;5106104;28;20432;-74
2021/06/10 05:44:29;;;;;;;16.77;5.97;;;;;;;17.47;61.47;93769.06;5089290;28;20032;-74
2021/06/10 05:46:54;;;;;;;17.13;6.28;;;;;;;17.49;60.73;93768.72;5104357;28;20019;-74
2021/06/10 05:49:20;;;;;;;13.77;5.70;;;;;;;17.47;60.87;93757.50;5098395;28;20024;-75
2021/06/10 05:51:46;;;;;;;9.30;5.90;;;;;;;17.51;60.84;93764.50;5098029;28;20020;-75
2021/06/10 05:54:11;;;;;;;14.40;6.20;;;;;;;17.59;60.83;93760.03;5098936;28;20024;-75
2021/06/10 05:56:37;;;;;;;12.45;5.80;;;;;;;17.62;61.00;93757.38;5089712;28;20102;-76
2021/06/10 05:59:03;;;;;;;11.48;6.63;;;;;;;17.66;61.16;93762.84;5095584;28;20092;-77
2021/06/10 06:01:29;;;;;;;12.05;6.47;;;;;;;17.69;60.78;93758.63;5105193;28;20046;-76
2021/06/10 06:03:54;;;;;;;16.10;7.40;;;;;;;17.71;60.78;93767.13;5101616;28;20098;-74
2021/06/10 06:06:20;;;;;;;11.50;5.97;;;;;;;17.69;60.82;93764.03;5093840;28;20028;-82
2021/06/10 06:08:46;;;;;;;18.02;7.22;;;;;;;17.72;60.71;93772.16;5106413;28;20072;-74
2021/06/10 06:11:12;;;;;;;15.57;6.70;;;;;;;17.78;61.43;93776.13;5107901;28;20032;-73
2021/06/10 06:13:55;;;;;;;16.40;6.90;;;;;;;17.72;61.25;93780.25;5094448;28;20047;-73
2021/06/10 06:16:21;;;;;;;14.75;6.07;;;;;;;17.84;59.95;93777.41;5107133;28;20024;-73
2021/06/10 06:18:50;;;;;;;19.67;5.93;;;;;;;17.93;60.64;93782.56;5109390;28;20102;-73
2021/06/10 06:21:16;;;;;;;16.08;6.68;;;;;;;17.96;60.27;93778.38;5109108;28;20027;-73
2021/06/10 06:23:42;;;;;;;19.48;7.45;;;;;;;18.05;59.93;93770.78;5100256;28;20157;-73
2021/06/10 06:26:11;;;;;;;13.48;6.63;;;;;;;18.10;59.55;93772.41;5101459;28;20549;-74
2021/06/10 06:28:38;;;;;;;11.63;6.18;;;;;;;18.23;59.41;93771.84;5106443;28;20482;-73
2021/06/10 06:31:03;;;;;;;11.82;6.60;;;;;;;18.27;59.78;93781.91;5106575;28;20034;-73
2021/06/10 06:33:29;;;;;;;15.43;7.07;;;;;;;18.36;59.44;93787.81;5109414;28;20040;-73
2021/06/10 06:35:55;;;;;;;16.98;7.57;;;;;;;18.42;59.19;93780.97;5103318;28;20541;-73
2021/06/10 06:38:21;;;;;;;13.32;7.70;;;;;;;18.45;58.63;93782.94;5106489;28;20483;-73
2021/06/10 06:40:48;;;;;;;9.50;6.80;;;;;;;18.54;59.43;93786.16;5110394;28;20030;-73
2021/06/10 06:43:14;;;;;;;20.13;7.53;;;;;;;18.56;60.65;93783.88;5109083;28;20023;-73
2021/06/10 06:45:40;;;;;;;16.00;7.28;;;;;;;18.66;58.96;93793.25;5109484;28;20030;-73
2021/06/10 06:48:06;;;;;;;11.32;6.50;;;;;;;18.84;58.44;93793.50;5094754;28;20036;-74
2021/06/10 06:50:32;;;;;;;12.82;7.00;;;;;;;18.78;58.20;93803.03;5113085;28;20118;-74
2021/06/10 06:52:57;;;;;;;10.40;6.57;;;;;;;18.88;58.14;93794.31;5107483;28;20032;-74
2021/06/10 06:55:22;;;;;;;13.25;6.60;;;;;;;18.96;57.88;93803.31;5091459;28;20495;-74
2021/06/10 06:57:48;;;;;;;12.07;6.88;;;;;;;19.00;57.80;93796.78;5091464;28;20054;-73
2021/06/10 07:00:14;;;;;;;30.30;8.13;;;;;;;19.06;57.31;93799.19;5093011;28;20027;-74
2021/06/10 07:02:39;;;;;;;12.02;5.95;;;;;;;19.21;57.34;93807.09;5111241;28;20023;-74
2021/06/10 07:05:05;;;;;;;14.38;5.72;;;;;;;19.35;56.86;93795.63;5094905;28;20024;-73
2021/06/10 07:07:31;;;;;;;15.82;6.40;;;;;;;19.49;56.59;93805.81;5091354;28;20460;-73
2021/06/10 07:09:57;;;;;;;12.23;5.72;;;;;;;19.53;57.15;93811.28;5091345;28;20123;-74
2021/06/10 07:12:22;;;;;;;15.93;5.45;;;;;;;19.72;55.83;93803.00;5092445;28;20028;-74
2021/06/10 07:14:48;;;;;;;10.10;4.80;;;;;;;19.94;55.57;93803.19;5091213;28;20031;-73
2021/06/10 07:17:13;;;;;;;13.43;5.18;;;;;;;19.99;53.78;93808.25;5093091;28;20506;-73
2021/06/10 07:19:39;;;;;;;17.35;5.50;;;;;;;20.10;54.03;93813.75;5111177;28;20039;-73
2021/06/10 07:22:04;;;;;;;12.55;5.13;;;;;;;20.22;53.20;93814.22;5111555;28;20155;-73
2021/06/10 07:24:30;;;;;;;16.83;5.15;;;;;;;20.36;52.91;93812.78;5112657;28;20039;-73
2021/06/10 07:26:55;;;;;;;6.65;4.18;;;;;;;20.43;52.74;93818.22;5111397;28;20397;-74
2021/06/10 07:29:21;;;;;;;7.97;3.92;;;;;;;20.57;52.06;93823.75;5111552;28;20515;-74
2021/06/10 07:31:46;;;;;;;10.35;3.53;;;;;;;20.62;51.53;93836.97;5112594;28;20083;-74
2021/06/10 07:34:12;;;;;;;9.15;4.07;;;;;;;20.68;52.03;93845.53;5128453;27;20035;-74
2021/06/10 07:36:38;;;;;;;12.70;4.10;;;;;;;20.77;52.52;93837.81;5111172;28;20511;-74
2021/06/10 07:39:06;;;;;;;13.95;4.93;;;;;;;20.89;53.00;93855.69;5111324;28;20038;-73
2021/06/10 07:41:31;;;;;;;8.98;6.07;;;;;;;21.09;53.62;93856.19;5112739;28;20031;-74
2021/06/10 07:43:57;;;;;;;14.63;5.95;;;;;;;21.19;53.38;93860.88;5110892;28;20043;-74
2021/06/10 07:46:23;;;;;;;13.38;6.53;;;;;;;21.35;52.92;93859.78;5091956;28;20020;-74
2021/06/10 07:48:48;;;;;;;8.95;4.57;;;;;;;21.36;51.82;93858.63;5091652;28;20419;-74
2021/06/10 07:51:14;;;;;;;9.35;3.95;;;;;;;21.55;49.92;93866.47;5105187;28;20546;-74
2021/06/10 07:53:40;;;;;;;7.40;3.20;;;;;;;21.53;48.05;93863.34;5112348;28;20023;-74
2021/06/10 07:56:06;;;;;;;7.65;3.08;;;;;;;21.70;48.44;93878.16;5106985;28;20115;-74
2021/06/10 07:58:32;;;;;;;10.10;3.28;;;;;;;21.89;48.72;93868.88;5110813;28;20023;-76
2021/06/10 08:00:58;;;;;;;5.53;3.70;;;;;;;22.06;47.45;93875.50;5090534;28;20028;-74
2021/06/10 08:03:24;;;;;;;8.18;4.68;;;;;;;22.22;46.97;93870.47;5108869;28;20023;-74
2021/06/10 08:05:50;;;;;;;10.38;3.88;;;;;;;22.34;46.61;93880.22;5110388;28;20042;-74
2021/06/10 08:08:16;;;;;;;5.05;3.38;;;;;;;22.45;45.99;93880.22;5110779;28;20070;-74
2021/06/10 08:10:42;;;;;;;10.50;3.08;;;;;;;22.58;44.57;93881.38;5097779;28;20094;-75
2021/06/10 08:13:10;;;;;;;6.07;3.10;;;;;;;22.57;44.03;93876.31;5090133;28;20066;-74
2021/06/10 08:15:36;;;;;;;4.13;2.92;;;;;;;22.47;44.44;93877.91;5091287;28;20147;-75
2021/06/10 08:18:05;;;;;;;5.90;2.67;;;;;;;22.52;44.26;93885.66;5089649;28;20086;-74
2021/06/10 08:20:31;;;;;;;12.95;3.50;;;;;;;22.70;43.85;93884.88;5091388;28;20394;-74
2021/06/10 08:22:59;;;;;;;15.38;3.00;;;;;;;22.81;43.17;93877.47;5091228;28;20123;-74
2021/06/10 08:25:32;;;;;;;5.13;3.17;;;;;;;23.02;43.01;93880.19;5090012;28;20462;-74
2021/06/10 08:28:02;;;;;;;7.30;2.80;;;;;;;23.13;42.39;93882.13;5091074;28;20105;-74
2021/06/10 08:30:27;;;;;;;6.40;2.97;;;;;;;23.16;41.50;93875.88;5089908;28;20073;-74
2021/06/10 08:32:53;;;;;;;8.68;3.20;;;;;;;23.09;42.25;93884.06;5090888;28;20465;-75
2021/06/10 08:35:19;;;;;;;6.63;2.72;;;;;;;23.17;42.21;93885.59;5089917;28;20046;-74
2021/06/10 08:37:45;;;;;;;9.38;3.17;;;;;;;23.23;42.01;93894.91;5109749;28;20020;-75
2021/06/10 08:40:13;;;;;;;7.82;2.92;;;;;;;23.23;42.22;93892.94;5110062;28;20058;-74
2021/06/10 08:42:41;;;;;;;6.80;2.75;;;;;;;23.17;42.62;93891.81;5111343;28;20554;-74
2021/06/10 08:45:15;;;;;;;5.63;3.10;;;;;;;23.10;41.58;93891.03;5110842;28;20022;-74
2021/06/10 08:47:44;;;;;;;8.45;3.45;;;;;;;22.99;42.12;93891.81;5111117;28;20453;-74
2021/06/10 08:50:12;;;;;;;4.35;2.80;;;;;;;23.02;42.13;93882.91;5110100;28;20019;-74
2021/06/10 08:52:39;;;;;;;6.45;3.00;;;;;;;23.00;41.49;93887.16;5109917;28;20031;-74
2021/06/10 08:55:06;;;;;;;5.03;3.10;;;;;;;23.01;41.39;93889.50;5110713;28;20081;-74
2021/06/10 08:57:32;;;;;;;10.70;3.85;;;;;;;23.06;42.47;93884.84;5111086;28;20406;-74
2021/06/10 08:59:57;;;;;;;6.07;3.22;;;;;;;23.10;42.46;93894.56;5110855;28;20118;-74
2021/06/10 09:02:23;;;;;;;4.68;3.10;;;;;;;23.12;42.19;93896.84;5109655;28;20032;-74
2021/06/10 09:04:48;;;;;;;8.13;4.10;;;;;;;23.12;42.77;93889.50;5109307;28;20033;-75
2021/06/10 09:07:14;;;;;;;4.28;2.78;;;;;;;23.15;42.58;93888.69;5109424;28;20024;-74
2021/06/10 09:09:41;;;;;;;8.00;3.25;;;;;;;23.23;43.13;93884.03;5109530;28;20038;-74
2021/06/10 09:12:10;;;;;;;10.18;2.80;;;;;;;23.18;44.59;93879.78;5110561;28;20032;-74
2021/06/10 09:14:55;;;;;;;4.05;2.45;;;;;;;23.17;44.33;93863.84;5109345;28;20498;-74
2021/06/10 09:17:34;;;;;;;4.47;2.25;;;;;;;23.14;42.76;93865.41;5105052;28;20102;-74
2021/06/10 09:20:00;;;;;;;6.95;2.70;;;;;;;23.20;43.69;93869.28;5101065;28;20088;-74
2021/06/10 09:22:28;;;;;;;6.60;2.97;;;;;;;23.20;43.36;93863.84;5090354;28;20403;-74
2021/06/10 09:25:09;;;;;;;5.40;2.60;;;;;;;23.15;43.59;93855.31;5088440;28;20482;-74
2021/06/10 09:27:48;;;;;;;5.53;2.40;;;;;;;23.11;42.14;93854.53;5089034;28;20045;-74
2021/06/10 09:30:27;;;;;;;4.10;2.60;;;;;;;22.89;42.45;93859.22;5088762;28;20073;-74
2021/06/10 09:32:52;;;;;;;4.18;2.13;;;;;;;22.72;41.13;93856.16;5092526;28;20054;-74
2021/06/10 09:35:30;;;;;;;2.70;1.98;;;;;;;22.65;40.98;93856.16;5110717;27;20414;-74
2021/06/10 09:38:01;;;;;;;5.30;2.45;;;;;;;22.72;41.60;93849.94;5093905;28;20059;-74
2021/06/10 09:40:28;;;;;;;3.38;1.83;;;;;;;22.80;38.84;93854.19;5095874;28;20031;-74
2021/06/10 09:42:54;;;;;;;2.72;1.50;;;;;;;22.88;37.31;93846.78;5104851;28;20066;-74
2021/06/10 09:45:23;;;;;;;2.50;1.58;;;;;;;22.98;37.13;93854.16;5109886;28;20065;-74
2021/06/10 09:47:52;;;;;;;4.63;2.78;;;;;;;23.08;38.24;93852.59;5110033;28;20068;-74
2021/06/10 09:50:27;;;;;;;3.90;2.42;;;;;;;23.21;40.46;93854.50;5109844;28;20024;-74
2021/06/10 09:53:01;;;;;;;5.75;1.80;;;;;;;23.37;38.64;93848.63;5108805;28;20027;-74
2021/06/10 09:55:46;;;;;;;2.97;1.80;;;;;;;23.43;35.24;93844.31;5108909;28;20026;-74
2021/06/10 09:58:12;;;;;;;2.05;1.25;;;;;;;23.56;34.17;93839.22;5107371;28;20015;-74
2021/06/10 10:00:49;;;;;;;2.72;1.63;;;;;;;23.72;35.28;93852.34;5089831;28;20024;-74
2021/06/10 10:03:32;;;;;;;2.20;1.30;;;;;;;23.89;36.11;93842.56;5088297;28;20099;-74
2021/06/10 10:06:05;;;;;;;3.00;1.73;;;;;;;24.06;36.29;93835.47;5097270;28;20031;-74
2021/06/10 10:08:32;;;;;;;3.35;1.33;;;;;;;24.20;34.86;93823.66;5091832;28;20555;-74
2021/06/10 10:10:59;;;;;;;3.13;1.30;;;;;;;24.37;34.19;93827.44;5092546;28;20494;-74
2021/06/10 10:13:26;;;;;;;2.47;1.30;;;;;;;24.50;33.92;93825.03;5099162;28;20031;-74
2021/06/10 10:15:53;;;;;;;2.10;1.30;;;;;;;24.65;34.25;93825.66;5095363;28;20011;-74
2021/06/10 10:18:19;;;;;;;6.10;2.50;;;;;;;24.81;35.52;93820.44;5093644;28;20074;-74
2021/06/10 10:20:45;;;;;;;4.00;1.52;;;;;;;24.85;32.38;93828.59;5110491;28;20123;-74
2021/06/10 10:23:11;;;;;;;1.75;1.15;;;;;;;24.99;32.56;93822.97;5113527;27;20027;-75
2021/06/10 10:25:37;;;;;;;2.47;1.33;;;;;;;25.08;32.73;93819.78;5092344;28;20029;-74
2021/06/10 10:28:10;;;;;;;2.80;1.63;;;;;;;25.16;31.44;93818.53;5093684;28;20064;-74
2021/06/10 10:30:38;;;;;;;7.68;1.48;;;;;;;25.21;32.66;93813.41;5091956;28;20024;-74
2021/06/10 10:33:18;;;;;;;2.22;1.23;;;;;;;25.26;32.46;93805.97;5092243;28;20028;-74
2021/06/10 10:35:52;;;;;;;4.18;1.42;;;;;;;25.36;33.54;93807.78;5092364;28;20036;-74
2021/06/10 10:38:22;;;;;;;3.30;1.33;;;;;;;25.46;31.57;93811.56;5091985;28;20020;-75
2021/06/10 10:40:52;;;;;;;2.75;1.27;;;;;;;25.59;32.74;93812.56;5092265;28;20621;-74
2021/06/10 10:43:19;;;;;;;2.08;1.33;;;;;;;25.72;32.56;93812.78;5091893;28;20056;-74
2021/06/10 10:45:50;;;;;;;3.08;1.35;;;;;;;25.59;30.23;93815.31;5106105;28;20520;-74
2021/06/10 10:48:31;;;;;;;2.78;1.40;;;;;;;25.59;30.76;93802.41;5098246;28;20401;-74
2021/06/10 10:50:57;;;;;;;3.00;1.35;;;;;;;25.71;31.52;93806.56;5098810;28;20444;-74
2021/06/10 10:53:23;;;;;;;2.88;1.25;;;;;;;25.82;30.69;93807.16;5093671;28;20027;-75
2021/06/10 10:56:11;;;;;;;2.45;1.30;;;;;;;26.00;31.21;93800.72;5110603;28;20028;-74
2021/06/10 10:58:38;;;;;;;2.00;1.23;;;;;;;26.09;31.64;93802.91;5109237;28;20448;-74
2021/06/10 11:01:07;;;;;;;3.17;1.17;;;;;;;26.18;30.99;93801.22;5112947;28;20035;-74
2021/06/10 11:03:34;;;;;;;2.03;1.40;;;;;;;26.33;31.37;93796.28;5091190;28;20050;-74
2021/06/10 11:06:22;;;;;;;2.22;1.08;;;;;;;26.55;30.46;93796.69;5096912;28;20031;-74
2021/06/10 11:08:59;;;;;;;3.38;1.30;;;;;;;26.72;30.53;93796.81;5111723;28;20031;-74
2021/06/10 11:11:59;;;;;;;1.45;1.05;;;;;;;26.72;27.03;93794.09;5099986;28;20047;-75
2021/06/10 11:14:47;;;;;;;4.32;1.70;;;;;;;26.64;29.04;93795.41;5100683;28;20021;-75
2021/06/10 11:17:21;;;;;;;3.90;1.95;;;;;;;26.86;30.58;93791.09;5103938;28;20028;-74
2021/06/10 11:19:50;;;;;;;3.33;1.80;;;;;;;27.14;30.76;93783.56;5101203;28;20455;-74
2021/06/10 11:22:25;;;;;;;3.85;1.92;;;;;;;27.35;29.54;93790.56;5113119;28;20022;-74
2021/06/10 11:24:51;;;;;;;2.92;1.63;;;;;;;27.44;27.87;93788.06;5105077;28;20399;-74
2021/06/10 11:27:31;;;;;;;2.13;1.25;;;;;;;27.51;25.76;93784.38;5090888;28;20119;-74
2021/06/10 11:30:10;;;;;;;1.70;1.27;;;;;;;27.67;27.18;93778.94;5104860;28;20034;-74
2021/06/10 11:32:57;;;;;;;2.85;1.50;;;;;;;27.37;25.70;93767.06;5112536;28;20020;-75
2021/06/10 11:35:35;;;;;;;2.05;1.52;;;;;;;27.46;26.75;93774.72;5112700;28;20024;-74